Allenton, Michigan
Current Conditions -  °F | °C
As of 2:33 AM on Thursday 23 Oct 2014 (Local Time) from KD95 Reporting Station
Broken Clouds Broken Clouds  
Wind Chill: 30°   Ceiling: 200
Heat Index: 30°   Visibility: 7mi
Dew Point: 30°   Wind: 0mph
Humidity: 99%   Direction: NA
Pressure: 30.28"   Gusts: NA
Location:  42.92°N, 82.95°W
Report Text: KD95 230633Z AUTO 00000KT 7SM BKN002 M01/M01 A3028 RMK AO2 T10091011
Loading
Personal Weather Stations






























Interactive Weather Map
Tropical Storm Tracking
New forecast layout! Learn more

10-Day Weather Forecast

Advertisements
Track Severe Weather on mobile